Time;durP1;ratioP1;P1;durP2;ratioP2;P2;SDS_P1;SDS_P2;PMS_P1;PMS_P2;Temp;Humidity;BMP_temperature;BMP_pressure;BME280_temperature;BME280_humidity;BME280_pressure;Samples;Min_cycle;Max_cycle;Signal;HPM_P1;HPM_P2
2021/03/29 00:02:01;;;;;;;4.05;2.60;;;;;;;;;;4997292;28;20214;-83
2021/03/29 00:04:29;;;;;;;4.63;2.33;;;;;;;;;;4996970;28;20678;-82
2021/03/29 00:06:56;;;;;;;6.32;2.08;;;;;;;;;;4997008;28;20702;-81
2021/03/29 00:09:24;;;;;;;9.27;3.05;;;;;;;;;;4997564;28;20275;-82
2021/03/29 00:11:54;;;;;;;4.75;2.10;;;;;;;;;;4997564;28;20258;-82
2021/03/29 00:14:21;;;;;;;5.05;1.88;;;;;;;;;;4996822;28;20638;-82
2021/03/29 00:16:49;;;;;;;6.95;2.20;;;;;;;;;;4997741;28;20238;-81
2021/03/29 00:19:17;;;;;;;2.63;1.88;;;;;;;;;;4997607;28;20203;-82
2021/03/29 00:21:45;;;;;;;5.45;2.00;;;;;;;;;;4998137;28;20192;-82
2021/03/29 00:24:13;;;;;;;3.35;2.10;;;;;;;;;;4997244;28;20183;-83
2021/03/29 00:26:41;;;;;;;6.45;2.30;;;;;;;;;;4997183;28;20228;-82
2021/03/29 00:29:08;;;;;;;4.40;2.10;;;;;;;;;;4996953;28;20191;-82
2021/03/29 00:31:35;;;;;;;2.83;1.75;;;;;;;;;;4997367;28;20223;-82
2021/03/29 00:34:05;;;;;;;4.95;1.80;;;;;;;;;;4996251;28;20290;-82
2021/03/29 00:36:32;;;;;;;11.57;2.13;;;;;;;;;;4997435;28;20307;-83
2021/03/29 00:39:01;;;;;;;4.95;2.28;;;;;;;;;;4997490;28;20198;-82
2021/03/29 00:41:28;;;;;;;3.83;2.05;;;;;;;;;;4996490;28;20211;-82
2021/03/29 00:43:56;;;;;;;4.13;2.00;;;;;;;;;;4997094;28;20186;-82
2021/03/29 00:46:23;;;;;;;3.75;1.77;;;;;;;;;;4997020;28;20650;-82
2021/03/29 00:48:52;;;;;;;5.97;2.42;;;;;;;;;;4996289;28;20271;-82
2021/03/29 00:51:25;;;;;;;6.47;2.63;;;;;;;;;;4997078;28;20621;-82
2021/03/29 00:53:56;;;;;;;10.02;3.10;;;;;;;;;;4996853;28;20194;-82
2021/03/29 00:56:25;;;;;;;4.60;1.92;;;;;;;;;;4996574;28;20246;-82
2021/03/29 00:58:52;;;;;;;2.47;1.73;;;;;;;;;;4996711;28;20207;-82
2021/03/29 01:01:22;;;;;;;3.20;1.90;;;;;;;;;;4996991;28;20413;-82
2021/03/29 01:03:52;;;;;;;13.05;3.15;;;;;;;;;;4996834;28;20188;-82
2021/03/29 01:06:21;;;;;;;3.50;2.10;;;;;;;;;;4996633;28;20281;-82
2021/03/29 01:08:51;;;;;;;4.80;1.90;;;;;;;;;;4996400;28;20639;-82
2021/03/29 01:11:23;;;;;;;3.05;1.80;;;;;;;;;;4996961;28;20247;-81
2021/03/29 01:13:56;;;;;;;7.03;2.45;;;;;;;;;;4996511;28;20196;-82
2021/03/29 01:16:24;;;;;;;5.63;2.60;;;;;;;;;;4997558;28;20230;-82
2021/03/29 01:18:55;;;;;;;3.45;1.67;;;;;;;;;;4997451;28;20271;-83
2021/03/29 01:21:45;;;;;;;4.60;1.98;;;;;;;;;;4997272;28;20271;-82
2021/03/29 01:24:16;;;;;;;5.25;2.17;;;;;;;;;;4997055;28;20210;-83
2021/03/29 01:26:45;;;;;;;3.33;1.88;;;;;;;;;;4997326;28;20269;-82
2021/03/29 01:29:15;;;;;;;2.75;1.70;;;;;;;;;;4997803;28;20362;-82
2021/03/29 01:31:43;;;;;;;2.67;2.00;;;;;;;;;;4996956;28;20223;-81
2021/03/29 01:34:13;;;;;;;2.10;1.85;;;;;;;;;;4996765;28;20263;-81
2021/03/29 01:36:41;;;;;;;8.00;2.30;;;;;;;;;;4996649;28;20621;-82
2021/03/29 01:39:09;;;;;;;3.28;2.00;;;;;;;;;;4996886;28;20633;-81
2021/03/29 01:41:37;;;;;;;7.15;2.85;;;;;;;;;;4996708;28;20690;-82
2021/03/29 01:44:06;;;;;;;4.85;2.08;;;;;;;;;;4996950;28;20279;-81
2021/03/29 01:46:33;;;;;;;5.78;2.30;;;;;;;;;;4996810;28;20658;-82
2021/03/29 01:49:00;;;;;;;4.35;2.50;;;;;;;;;;4997084;28;20223;-81
2021/03/29 01:51:29;;;;;;;4.88;2.08;;;;;;;;;;4996884;28;20214;-82
2021/03/29 01:53:57;;;;;;;9.00;2.63;;;;;;;;;;4996541;28;20184;-82
2021/03/29 01:56:24;;;;;;;3.30;2.05;;;;;;;;;;4996269;28;20262;-81
2021/03/29 01:58:51;;;;;;;3.50;2.00;;;;;;;;;;4996531;28;20282;-82
2021/03/29 02:01:19;;;;;;;3.70;2.13;;;;;;;;;;4996800;28;20194;-82
2021/03/29 02:03:46;;;;;;;2.55;1.73;;;;;;;;;;4996415;28;20259;-82
2021/03/29 02:06:13;;;;;;;2.42;1.80;;;;;;;;;;4996851;28;20234;-83
2021/03/29 02:08:42;;;;;;;3.10;1.52;;;;;;;;;;4995470;28;20662;-83
2021/03/29 02:11:09;;;;;;;3.20;1.40;;;;;;;;;;4996226;28;20611;-82
2021/03/29 02:13:39;;;;;;;4.55;2.15;;;;;;;;;;4997578;28;20271;-82
2021/03/29 02:16:12;;;;;;;5.80;2.03;;;;;;;;;;4996859;28;20292;-82
2021/03/29 02:18:43;;;;;;;4.60;2.13;;;;;;;;;;4988677;28;20257;-82
2021/03/29 02:21:13;;;;;;;4.95;2.38;;;;;;;;;;4996622;28;20184;-82
2021/03/29 02:23:42;;;;;;;6.00;2.10;;;;;;;;;;4996928;28;20188;-82
2021/03/29 02:26:10;;;;;;;5.18;2.08;;;;;;;;;;4996627;28;20315;-82
2021/03/29 02:28:40;;;;;;;7.18;2.70;;;;;;;;;;4997392;28;20188;-83
2021/03/29 02:31:08;;;;;;;7.53;2.30;;;;;;;;;;4995906;28;20318;-81
2021/03/29 02:33:35;;;;;;;4.55;2.08;;;;;;;;;;4996810;28;20681;-82
2021/03/29 02:36:04;;;;;;;5.20;2.10;;;;;;;;;;4996060;28;20254;-82
2021/03/29 02:38:33;;;;;;;4.40;2.05;;;;;;;;;;4996333;28;20208;-81
2021/03/29 02:41:00;;;;;;;7.47;2.97;;;;;;;;;;4996948;28;20226;-82
2021/03/29 02:43:29;;;;;;;4.57;2.30;;;;;;;;;;4996175;28;20235;-82
2021/03/29 02:45:58;;;;;;;6.63;2.42;;;;;;;;;;4995968;28;20291;-82
2021/03/29 02:48:29;;;;;;;8.27;2.85;;;;;;;;;;4996517;28;20271;-82
2021/03/29 02:54:39;;;;;;;4.15;2.80;;;;;;;;;;4995483;28;20182;-83
2021/03/29 02:57:07;;;;;;;6.97;2.80;;;;;;;;;;4994918;28;20239;-82
2021/03/29 02:59:34;;;;;;;4.78;3.13;;;;;;;;;;4996771;28;20200;-83
2021/03/29 03:02:02;;;;;;;4.57;2.65;;;;;;;;;;4996700;28;20192;-82
2021/03/29 03:04:29;;;;;;;6.78;2.95;;;;;;;;;;4995815;28;20203;-82
2021/03/29 03:06:56;;;;;;;4.97;2.88;;;;;;;;;;4996059;28;20231;-82
2021/03/29 03:09:23;;;;;;;4.43;2.53;;;;;;;;;;4995606;28;20211;-82
2021/03/29 03:11:51;;;;;;;4.15;2.33;;;;;;;;;;4996701;28;20180;-83
2021/03/29 03:14:18;;;;;;;9.95;3.10;;;;;;;;;;4996706;28;20199;-83
2021/03/29 03:16:46;;;;;;;4.18;2.90;;;;;;;;;;4999769;28;20230;-83
2021/03/29 03:19:14;;;;;;;7.22;2.67;;;;;;;;;;4997065;28;20191;-82
2021/03/29 03:21:41;;;;;;;7.50;2.85;;;;;;;;;;4996714;28;20211;-83
2021/03/29 03:24:09;;;;;;;4.63;2.80;;;;;;;;;;4997294;28;20198;-83
2021/03/29 03:26:36;;;;;;;4.30;2.28;;;;;;;;;;4996310;28;20228;-83
2021/03/29 03:29:04;;;;;;;4.95;2.70;;;;;;;;;;4996464;28;20211;-82
2021/03/29 03:31:34;;;;;;;8.90;3.15;;;;;;;;;;4997939;28;20196;-82
2021/03/29 03:34:01;;;;;;;7.68;2.88;;;;;;;;;;4998759;28;20278;-82
2021/03/29 03:36:29;;;;;;;5.35;2.72;;;;;;;;;;4999273;28;20231;-82
2021/03/29 03:38:56;;;;;;;8.15;2.85;;;;;;;;;;4997861;28;20272;-82
2021/03/29 03:41:27;;;;;;;4.65;2.55;;;;;;;;;;4999986;28;20203;-82
2021/03/29 03:43:56;;;;;;;5.68;2.20;;;;;;;;;;4997787;28;20204;-82
2021/03/29 03:46:27;;;;;;;3.35;2.00;;;;;;;;;;4996387;28;20270;-82
2021/03/29 03:48:58;;;;;;;7.45;2.25;;;;;;;;;;4998272;28;20635;-82
2021/03/29 03:51:26;;;;;;;3.05;2.20;;;;;;;;;;4996219;28;20386;-81
2021/03/29 03:53:53;;;;;;;6.18;2.60;;;;;;;;;;4996198;28;20212;-82
2021/03/29 03:56:20;;;;;;;3.42;2.20;;;;;;;;;;4995160;28;20228;-82
2021/03/29 03:58:48;;;;;;;2.00;1.75;;;;;;;;;;4996949;28;20203;-82
2021/03/29 04:01:15;;;;;;;4.13;2.50;;;;;;;;;;4997206;28;20198;-82
2021/03/29 04:03:43;;;;;;;4.60;2.28;;;;;;;;;;4998099;28;20275;-83
2021/03/29 04:06:10;;;;;;;6.53;2.40;;;;;;;;;;4997552;28;20223;-81
2021/03/29 04:08:37;;;;;;;5.07;2.53;;;;;;;;;;5002130;28;20188;-82
2021/03/29 04:11:05;;;;;;;4.35;2.22;;;;;;;;;;4999120;28;20187;-81
2021/03/29 04:13:33;;;;;;;6.70;3.28;;;;;;;;;;4999437;28;20585;-82
2021/03/29 04:16:02;;;;;;;5.18;2.08;;;;;;;;;;4998684;28;20220;-82
2021/03/29 04:18:29;;;;;;;5.55;2.38;;;;;;;;;;4998806;28;20192;-82
2021/03/29 04:20:58;;;;;;;4.13;2.13;;;;;;;;;;4998369;28;20290;-82
2021/03/29 04:23:28;;;;;;;3.42;2.17;;;;;;;;;;4998535;28;20586;-82
2021/03/29 04:25:56;;;;;;;6.00;3.05;;;;;;;;;;4998236;28;20662;-82
2021/03/29 04:28:23;;;;;;;4.57;2.40;;;;;;;;;;4998556;28;20219;-82
2021/03/29 04:30:51;;;;;;;2.97;1.95;;;;;;;;;;4998280;28;20625;-82
2021/03/29 04:33:19;;;;;;;10.70;4.43;;;;;;;;;;4997919;28;20226;-83
2021/03/29 04:35:49;;;;;;;6.93;2.80;;;;;;;;;;4997920;28;20188;-82
2021/03/29 04:38:17;;;;;;;3.17;2.03;;;;;;;;;;4998847;28;20188;-82
2021/03/29 04:40:45;;;;;;;9.38;3.28;;;;;;;;;;4999082;28;20220;-82
2021/03/29 04:43:12;;;;;;;6.43;2.70;;;;;;;;;;4997427;28;20208;-82
2021/03/29 04:45:40;;;;;;;5.07;2.45;;;;;;;;;;4997196;28;20203;-82
2021/03/29 04:48:08;;;;;;;3.20;2.20;;;;;;;;;;4998680;28;20338;-82
2021/03/29 04:50:35;;;;;;;4.55;2.88;;;;;;;;;;4998170;28;20296;-82
2021/03/29 04:53:02;;;;;;;6.13;2.53;;;;;;;;;;4998125;28;20203;-82
2021/03/29 04:55:30;;;;;;;7.63;3.60;;;;;;;;;;4998032;28;20188;-82
2021/03/29 04:57:56;;;;;;;5.40;2.83;;;;;;;;;;4997465;28;20242;-82
2021/03/29 05:00:24;;;;;;;5.57;2.38;;;;;;;;;;4997662;28;20195;-82
2021/03/29 05:02:51;;;;;;;3.17;2.65;;;;;;;;;;4997352;28;20627;-82
2021/03/29 05:05:18;;;;;;;4.18;2.95;;;;;;;;;;4996957;28;20207;-83
2021/03/29 05:07:45;;;;;;;4.07;2.70;;;;;;;;;;4998908;28;20745;-82
2021/03/29 05:10:13;;;;;;;5.20;2.67;;;;;;;;;;4997872;28;20262;-81
2021/03/29 05:12:41;;;;;;;4.55;2.80;;;;;;;;;;4997249;28;20191;-82
2021/03/29 05:15:10;;;;;;;6.50;2.97;;;;;;;;;;4996946;28;20211;-82
2021/03/29 05:17:37;;;;;;;5.78;3.20;;;;;;;;;;4997748;28;20228;-82
2021/03/29 05:20:06;;;;;;;5.10;3.22;;;;;;;;;;4996664;28;20197;-82
2021/03/29 05:22:33;;;;;;;6.97;3.25;;;;;;;;;;4998268;28;20200;-81
2021/03/29 05:25:00;;;;;;;7.75;4.05;;;;;;;;;;4997278;28;20199;-81
2021/03/29 05:27:27;;;;;;;7.10;3.30;;;;;;;;;;4997816;28;20789;-82
2021/03/29 05:29:55;;;;;;;6.57;3.33;;;;;;;;;;4997901;28;20780;-82
2021/03/29 05:32:25;;;;;;;6.97;3.63;;;;;;;;;;4996891;28;20210;-83
2021/03/29 05:34:54;;;;;;;7.40;3.85;;;;;;;;;;4996378;28;20321;-83
2021/03/29 05:37:22;;;;;;;4.72;3.58;;;;;;;;;;4996009;28;20224;-83
2021/03/29 05:39:51;;;;;;;8.48;4.20;;;;;;;;;;4996693;28;20207;-83
2021/03/29 05:42:18;;;;;;;8.32;4.18;;;;;;;;;;4996694;28;20192;-84
2021/03/29 05:44:46;;;;;;;4.65;3.97;;;;;;;;;;4997195;28;20287;-83
2021/03/29 05:47:17;;;;;;;10.00;3.78;;;;;;;;;;4996970;28;20224;-82
2021/03/29 05:49:44;;;;;;;5.32;3.92;;;;;;;;;;4997703;28;20210;-82
2021/03/29 05:52:12;;;;;;;6.55;4.53;;;;;;;;;;4997079;28;20242;-82
2021/03/29 05:54:40;;;;;;;4.47;3.83;;;;;;;;;;4997690;28;20223;-83
2021/03/29 05:57:09;;;;;;;5.57;3.78;;;;;;;;;;4996386;28;20246;-83
2021/03/29 05:59:40;;;;;;;7.40;5.60;;;;;;;;;;4997160;28;20203;-83
2021/03/29 06:02:08;;;;;;;6.72;4.40;;;;;;;;;;4997734;28;20203;-83
2021/03/29 06:04:44;;;;;;;9.60;4.68;;;;;;;;;;4997734;28;20223;-83
2021/03/29 06:07:16;;;;;;;8.60;5.07;;;;;;;;;;4997403;28;20724;-83
2021/03/29 06:09:44;;;;;;;9.07;5.00;;;;;;;;;;4997655;28;20202;-82
2021/03/29 06:12:12;;;;;;;8.38;4.43;;;;;;;;;;4997627;28;20204;-82
2021/03/29 06:14:39;;;;;;;8.95;5.45;;;;;;;;;;4997411;28;20234;-83
2021/03/29 06:17:08;;;;;;;9.85;5.00;;;;;;;;;;4997139;28;20216;-83
2021/03/29 06:19:48;;;;;;;9.85;5.97;;;;;;;;;;4997131;28;20683;-83
2021/03/29 06:22:25;;;;;;;8.63;4.53;;;;;;;;;;4997130;28;20238;-83
2021/03/29 06:25:05;;;;;;;9.88;5.93;;;;;;;;;;4997713;28;20203;-84
2021/03/29 06:27:39;;;;;;;9.52;5.80;;;;;;;;;;4996852;28;20223;-84
2021/03/29 06:30:27;;;;;;;10.35;5.90;;;;;;;;;;4996297;28;20274;-84
2021/03/29 06:33:06;;;;;;;9.75;5.82;;;;;;;;;;4996552;28;20220;-83
2021/03/29 06:35:40;;;;;;;12.23;5.95;;;;;;;;;;4996921;28;20207;-83
2021/03/29 06:38:10;;;;;;;10.48;5.63;;;;;;;;;;4997074;28;20315;-83
2021/03/29 06:40:40;;;;;;;14.75;7.38;;;;;;;;;;4997277;28;20200;-84
2021/03/29 06:43:32;;;;;;;11.30;5.90;;;;;;;;;;4997757;28;20670;-84
2021/03/29 06:46:01;;;;;;;10.35;7.13;;;;;;;;;;4976630;28;20960;-84
2021/03/29 06:48:30;;;;;;;15.68;6.88;;;;;;;;;;4996289;28;20194;-84
2021/03/29 06:51:11;;;;;;;13.40;8.30;;;;;;;;;;4996649;28;20199;-84
2021/03/29 06:53:39;;;;;;;13.30;6.40;;;;;;;;;;4995416;28;20234;-83
2021/03/29 06:56:31;;;;;;;10.45;6.68;;;;;;;;;;4996351;28;20235;-84
2021/03/29 06:59:10;;;;;;;10.85;6.25;;;;;;;;;;4997023;28;20242;-84
2021/03/29 07:01:46;;;;;;;11.07;5.50;;;;;;;;;;4994299;28;20266;-84
2021/03/29 07:04:13;;;;;;;10.60;7.00;;;;;;;;;;4997257;28;20195;-84
2021/03/29 07:06:43;;;;;;;12.30;6.60;;;;;;;;;;4995900;28;20257;-84
2021/03/29 07:09:11;;;;;;;14.77;7.30;;;;;;;;;;4996382;28;20203;-84
2021/03/29 07:11:39;;;;;;;12.60;7.43;;;;;;;;;;4996305;28;20975;-84
2021/03/29 07:14:07;;;;;;;10.07;5.57;;;;;;;;;;4995718;28;20203;-84
2021/03/29 07:16:35;;;;;;;11.23;7.10;;;;;;;;;;4995066;28;20230;-85
2021/03/29 07:19:04;;;;;;;12.80;7.13;;;;;;;;;;4995919;28;20602;-84
2021/03/29 07:21:32;;;;;;;11.80;6.45;;;;;;;;;;4995745;28;20184;-84
2021/03/29 07:24:03;;;;;;;11.48;6.00;;;;;;;;;;4995838;28;20207;-83
2021/03/29 07:26:37;;;;;;;9.25;5.13;;;;;;;;;;4995303;28;20228;-84
2021/03/29 07:29:22;;;;;;;11.75;5.97;;;;;;;;;;4995702;28;20233;-84
2021/03/29 07:31:51;;;;;;;12.75;6.50;;;;;;;;;;4995836;28;20586;-85
2021/03/29 07:34:24;;;;;;;12.52;6.85;;;;;;;;;;4995564;28;20224;-84
2021/03/29 07:36:54;;;;;;;12.15;6.72;;;;;;;;;;4994377;28;20236;-85
2021/03/29 07:39:38;;;;;;;13.18;6.50;;;;;;;;;;4995654;28;20192;-84
2021/03/29 07:42:37;;;;;;;10.32;6.25;;;;;;;;;;4997433;28;20210;-85
2021/03/29 07:45:08;;;;;;;12.50;6.35;;;;;;;;;;4983254;28;20287;-85
2021/03/29 07:47:50;;;;;;;13.40;5.70;;;;;;;;;;4998674;28;20704;-85
2021/03/29 07:50:47;;;;;;;10.27;6.05;;;;;;;;;;4999372;28;20204;-85
2021/03/29 07:53:19;;;;;;;13.80;6.13;;;;;;;;;;4999670;28;20601;-84
2021/03/29 07:55:49;;;;;;;14.77;5.85;;;;;;;;;;4999133;28;20223;-85
2021/03/29 07:58:19;;;;;;;10.32;5.35;;;;;;;;;;4999923;28;20202;-84
2021/03/29 08:01:01;;;;;;;12.95;6.50;;;;;;;;;;4999182;28;20192;-84
2021/03/29 08:03:57;;;;;;;10.02;5.15;;;;;;;;;;4998601;28;20200;-82
2021/03/29 08:06:47;;;;;;;9.98;5.57;;;;;;;;;;4998119;28;20228;-82
2021/03/29 08:09:20;;;;;;;9.65;5.68;;;;;;;;;;4999740;28;20675;-84
2021/03/29 08:12:03;;;;;;;8.80;5.50;;;;;;;;;;4999314;28;20203;-84
2021/03/29 08:14:40;;;;;;;6.90;5.65;;;;;;;;;;4999273;28;20752;-83
2021/03/29 08:17:48;;;;;;;11.07;6.05;;;;;;;;;;4998890;28;20230;-84
2021/03/29 08:20:25;;;;;;;9.65;5.30;;;;;;;;;;4999582;28;20200;-84
2021/03/29 08:23:43;;;;;;;8.68;6.38;;;;;;;;;;4999245;28;20211;-83
2021/03/29 08:26:13;;;;;;;6.85;4.45;;;;;;;;;;4919225;29;20253;-85
2021/03/29 08:29:13;;;;;;;14.43;6.07;;;;;;;;;;4982867;28;20638;-84
2021/03/29 08:32:19;;;;;;;12.70;4.90;;;;;;;;;;4999031;28;20263;-83
2021/03/29 08:35:00;;;;;;;9.80;5.68;;;;;;;;;;4999828;28;20218;-84
2021/03/29 08:37:34;;;;;;;11.50;5.72;;;;;;;;;;4999699;28;20223;-84
2021/03/29 08:40:08;;;;;;;9.13;5.22;;;;;;;;;;4999052;28;20654;-84
2021/03/29 08:42:36;;;;;;;11.80;5.60;;;;;;;;;;4998883;28;20251;-84
2021/03/29 08:45:08;;;;;;;9.45;5.15;;;;;;;;;;4998316;28;20583;-85
2021/03/29 08:47:38;;;;;;;9.32;4.90;;;;;;;;;;4999717;28;20246;-84
2021/03/29 08:50:10;;;;;;;8.93;4.90;;;;;;;;;;4998855;28;20203;-83
2021/03/29 08:52:43;;;;;;;8.05;5.25;;;;;;;;;;4999518;28;20208;-84
2021/03/29 08:55:12;;;;;;;10.10;5.85;;;;;;;;;;4997922;28;20223;-85
2021/03/29 08:57:39;;;;;;;13.73;5.05;;;;;;;;;;4998563;28;20236;-85
2021/03/29 09:00:11;;;;;;;7.65;4.63;;;;;;;;;;4998891;28;20206;-85
2021/03/29 09:02:38;;;;;;;6.43;4.50;;;;;;;;;;4998769;28;20211;-84
2021/03/29 09:05:09;;;;;;;9.32;4.97;;;;;;;;;;4998488;28;20211;-83
2021/03/29 09:07:40;;;;;;;8.40;4.85;;;;;;;;;;4998678;28;20238;-85
2021/03/29 09:10:20;;;;;;;7.78;5.03;;;;;;;;;;4998177;28;20210;-85
2021/03/29 09:12:54;;;;;;;4.55;2.90;;;;;;;;;;4999374;28;20203;-85
2021/03/29 09:15:23;;;;;;;7.28;3.33;;;;;;;;;;4997733;28;20355;-85
2021/03/29 09:17:59;;;;;;;7.53;4.53;;;;;;;;;;4995875;28;20228;-86
2021/03/29 09:20:28;;;;;;;7.20;3.75;;;;;;;;;;4995028;28;20191;-84
2021/03/29 09:22:55;;;;;;;5.55;2.97;;;;;;;;;;4996417;28;20567;-86
2021/03/29 09:25:27;;;;;;;5.35;2.38;;;;;;;;;;4996398;28;20255;-85
2021/03/29 09:28:15;;;;;;;6.97;2.53;;;;;;;;;;4997172;28;20212;-85
2021/03/29 09:30:43;;;;;;;3.55;2.13;;;;;;;;;;4996523;28;20239;-83
2021/03/29 09:33:11;;;;;;;6.82;2.72;;;;;;;;;;4996776;28;20250;-84
2021/03/29 09:35:38;;;;;;;5.32;2.55;;;;;;;;;;4996086;28;20262;-84
2021/03/29 09:38:05;;;;;;;5.72;2.22;;;;;;;;;;4996673;28;20290;-85
2021/03/29 09:40:36;;;;;;;5.30;3.08;;;;;;;;;;4996621;28;20192;-87
2021/03/29 09:43:04;;;;;;;6.15;2.90;;;;;;;;;;4996655;28;20635;-85
2021/03/29 09:45:34;;;;;;;5.95;2.70;;;;;;;;;;4996970;28;20218;-86
2021/03/29 09:48:07;;;;;;;6.53;2.38;;;;;;;;;;4996859;28;20219;-84
2021/03/29 09:50:37;;;;;;;6.53;2.47;;;;;;;;;;4997747;28;20695;-86
2021/03/29 09:53:13;;;;;;;6.15;2.42;;;;;;;;;;4996449;28;20463;-85
2021/03/29 09:55:47;;;;;;;5.75;2.28;;;;;;;;;;4995922;28;20215;-86
2021/03/29 09:58:19;;;;;;;6.25;2.20;;;;;;;;;;4996607;28;20813;-86
2021/03/29 10:00:47;;;;;;;3.85;2.25;;;;;;;;;;4997777;28;20180;-83
2021/03/29 10:03:19;;;;;;;4.88;2.50;;;;;;;;;;4996737;28;20223;-85
2021/03/29 10:05:46;;;;;;;3.17;2.40;;;;;;;;;;4996570;28;20255;-85
2021/03/29 10:08:25;;;;;;;6.65;2.10;;;;;;;;;;4996576;28;20303;-84
2021/03/29 10:11:01;;;;;;;2.78;2.45;;;;;;;;;;4996024;28;20250;-86
2021/03/29 10:13:39;;;;;;;5.93;2.25;;;;;;;;;;4995798;28;20186;-85
2021/03/29 10:16:24;;;;;;;3.90;3.03;;;;;;;;;;4993948;28;20277;-86
2021/03/29 10:19:04;;;;;;;2.25;1.92;;;;;;;;;;4995527;28;20196;-86
2021/03/29 10:21:32;;;;;;;3.08;2.05;;;;;;;;;;4995071;28;20209;-85
2021/03/29 10:24:12;;;;;;;3.50;2.03;;;;;;;;;;4995357;28;20203;-86
2021/03/29 10:26:40;;;;;;;3.35;2.30;;;;;;;;;;4995165;28;20223;-85
2021/03/29 10:29:08;;;;;;;5.05;2.53;;;;;;;;;;4995412;28;20630;-85
2021/03/29 10:31:37;;;;;;;3.80;2.20;;;;;;;;;;4995000;28;20269;-85
2021/03/29 10:34:05;;;;;;;3.72;2.35;;;;;;;;;;4995936;28;20282;-86
2021/03/29 10:36:32;;;;;;;4.70;2.20;;;;;;;;;;4995030;28;20294;-85
2021/03/29 10:39:00;;;;;;;7.28;3.13;;;;;;;;;;4995830;28;20210;-85
2021/03/29 10:41:27;;;;;;;1.80;1.70;;;;;;;;;;4995106;28;20660;-86
2021/03/29 10:43:54;;;;;;;7.03;2.10;;;;;;;;;;4993359;28;20188;-85
2021/03/29 10:46:21;;;;;;;3.38;2.08;;;;;;;;;;4993089;28;20216;-85
2021/03/29 10:48:49;;;;;;;4.53;2.60;;;;;;;;;;4995249;28;20287;-83
2021/03/29 10:51:17;;;;;;;4.90;2.45;;;;;;;;;;4995621;28;20187;-84
2021/03/29 10:53:44;;;;;;;3.95;2.10;;;;;;;;;;4994891;28;20245;-84
2021/03/29 10:56:11;;;;;;;4.50;1.95;;;;;;;;;;4994193;28;20235;-85
2021/03/29 10:58:38;;;;;;;2.90;1.55;;;;;;;;;;4995108;28;20208;-85
2021/03/29 11:01:05;;;;;;;4.63;2.50;;;;;;;;;;4995129;28;20231;-85
2021/03/29 11:03:32;;;;;;;6.57;1.65;;;;;;;;;;4995369;28;20279;-85
2021/03/29 11:05:59;;;;;;;4.28;2.00;;;;;;;;;;4994128;28;20585;-84
2021/03/29 11:08:27;;;;;;;4.70;1.67;;;;;;;;;;4994058;28;20204;-85
2021/03/29 11:10:54;;;;;;;2.30;1.83;;;;;;;;;;4993485;28;20700;-85
2021/03/29 11:13:20;;;;;;;4.95;2.38;;;;;;;;;;4993708;28;20224;-84
2021/03/29 11:15:48;;;;;;;2.65;1.65;;;;;;;;;;4993658;28;20231;-85
2021/03/29 11:18:15;;;;;;;2.05;1.55;;;;;;;;;;4997978;28;20201;-84
2021/03/29 11:20:42;;;;;;;1.60;1.33;;;;;;;;;;4997324;28;20234;-85
2021/03/29 11:23:09;;;;;;;4.20;2.13;;;;;;;;;;4998035;28;20196;-84
2021/03/29 11:25:36;;;;;;;3.65;1.88;;;;;;;;;;4997572;28;20191;-84
2021/03/29 11:28:04;;;;;;;5.25;1.98;;;;;;;;;;4997852;28;20207;-85
2021/03/29 11:30:31;;;;;;;2.67;1.73;;;;;;;;;;4999497;28;20650;-84
2021/03/29 11:32:58;;;;;;;1.75;1.40;;;;;;;;;;4999412;28;20246;-84
2021/03/29 11:35:25;;;;;;;1.92;1.77;;;;;;;;;;4999014;28;20599;-83
2021/03/29 11:37:52;;;;;;;1.73;1.50;;;;;;;;;;4998014;28;20628;-84
2021/03/29 11:40:19;;;;;;;2.53;1.70;;;;;;;;;;4997244;28;20196;-84
2021/03/29 11:42:47;;;;;;;4.30;1.80;;;;;;;;;;4997572;28;20620;-85
2021/03/29 11:45:15;;;;;;;3.88;1.80;;;;;;;;;;4998799;28;20207;-83
2021/03/29 11:47:42;;;;;;;1.80;1.35;;;;;;;;;;4998429;28;20230;-84
2021/03/29 11:50:11;;;;;;;1.58;1.45;;;;;;;;;;4998908;28;20251;-84
2021/03/29 11:52:39;;;;;;;5.60;2.05;;;;;;;;;;4998815;28;20240;-84
2021/03/29 11:55:09;;;;;;;3.53;1.80;;;;;;;;;;4997849;28;20215;-84
2021/03/29 11:57:37;;;;;;;3.97;1.90;;;;;;;;;;4996501;28;20231;-85
2021/03/29 12:00:10;;;;;;;2.13;1.60;;;;;;;;;;4999456;28;20658;-85
2021/03/29 12:02:41;;;;;;;2.53;1.67;;;;;;;;;;4996797;28;20196;-84
2021/03/29 12:05:10;;;;;;;2.17;1.60;;;;;;;;;;4997131;28;20203;-84
2021/03/29 12:07:53;;;;;;;2.30;1.40;;;;;;;;;;4996347;28;20657;-85
2021/03/29 12:13:07;;;;;;;4.82;2.10;;;;;;;;;;4995201;28;20187;-85
2021/03/29 12:15:35;;;;;;;3.63;1.67;;;;;;;;;;4997187;28;20226;-85
2021/03/29 12:18:02;;;;;;;6.25;2.55;;;;;;;;;;4996984;28;20215;-84
2021/03/29 12:20:39;;;;;;;5.63;2.00;;;;;;;;;;4996693;28;20563;-85
2021/03/29 12:23:06;;;;;;;4.25;1.65;;;;;;;;;;4997060;28;20279;-84
2021/03/29 12:25:33;;;;;;;5.25;1.98;;;;;;;;;;4995862;28;20238;-84
2021/03/29 12:28:01;;;;;;;1.63;1.30;;;;;;;;;;4994563;28;20220;-84
2021/03/29 12:30:28;;;;;;;5.75;1.85;;;;;;;;;;4994414;28;20238;-86
2021/03/29 12:32:55;;;;;;;2.25;1.50;;;;;;;;;;4995261;28;20211;-84
2021/03/29 12:35:23;;;;;;;1.75;1.48;;;;;;;;;;4994974;28;20666;-85
2021/03/29 12:37:52;;;;;;;3.58;2.10;;;;;;;;;;4997676;28;20224;-85
2021/03/29 12:40:23;;;;;;;2.05;1.60;;;;;;;;;;4997228;28;20254;-84
2021/03/29 12:43:02;;;;;;;3.78;1.70;;;;;;;;;;4996810;28;20627;-85
2021/03/29 12:45:32;;;;;;;2.90;1.73;;;;;;;;;;4994933;28;20211;-85
2021/03/29 12:48:02;;;;;;;3.30;1.40;;;;;;;;;;4998237;28;20212;-85
2021/03/29 12:50:30;;;;;;;2.53;1.80;;;;;;;;;;4993915;28;20610;-83
2021/03/29 12:52:57;;;;;;;3.53;2.08;;;;;;;;;;4996840;28;20192;-85
2021/03/29 12:55:25;;;;;;;3.40;2.30;;;;;;;;;;4996286;28;20195;-85
2021/03/29 12:57:55;;;;;;;4.00;2.15;;;;;;;;;;4994019;28;20315;-85
2021/03/29 13:00:24;;;;;;;2.35;1.60;;;;;;;;;;4996415;28;20245;-84
2021/03/29 13:02:54;;;;;;;2.28;1.30;;;;;;;;;;4996833;28;20188;-84
2021/03/29 13:05:31;;;;;;;3.53;1.40;;;;;;;;;;4995762;28;20631;-84
2021/03/29 13:08:01;;;;;;;2.90;1.70;;;;;;;;;;4996585;28;20223;-85
2021/03/29 13:13:15;;;;;;;2.90;2.03;;;;;;;;;;4989197;28;20202;-84
2021/03/29 13:15:42;;;;;;;3.63;1.38;;;;;;;;;;4996948;28;20200;-84
2021/03/29 13:18:09;;;;;;;2.38;1.40;;;;;;;;;;4996833;28;20208;-84
2021/03/29 13:20:37;;;;;;;6.60;1.95;;;;;;;;;;4997468;28;20188;-84
2021/03/29 13:23:05;;;;;;;3.88;1.80;;;;;;;;;;4996785;28;20219;-84
2021/03/29 13:25:33;;;;;;;4.30;2.13;;;;;;;;;;4996084;28;20689;-84
2021/03/29 13:28:02;;;;;;;1.40;1.30;;;;;;;;;;4997154;28;20644;-84
2021/03/29 13:30:30;;;;;;;1.95;1.63;;;;;;;;;;4997228;28;20207;-85
2021/03/29 13:33:17;;;;;;;3.45;1.90;;;;;;;;;;4999688;28;20211;-84
2021/03/29 13:35:45;;;;;;;3.05;2.25;;;;;;;;;;4996678;28;20251;-84
2021/03/29 13:38:13;;;;;;;2.17;1.55;;;;;;;;;;4996985;28;20207;-84
2021/03/29 13:40:41;;;;;;;2.05;1.55;;;;;;;;;;4996430;28;20214;-84
2021/03/29 13:43:12;;;;;;;4.57;1.50;;;;;;;;;;4996948;28;20696;-85
2021/03/29 13:45:39;;;;;;;2.42;1.60;;;;;;;;;;4997177;28;20191;-84
2021/03/29 13:48:07;;;;;;;6.03;1.40;;;;;;;;;;4996909;28;20211;-85
2021/03/29 13:50:37;;;;;;;3.03;1.67;;;;;;;;;;4997584;28;20222;-84
2021/03/29 13:53:06;;;;;;;11.85;2.00;;;;;;;;;;4998247;28;20196;-84
2021/03/29 13:55:33;;;;;;;1.25;1.15;;;;;;;;;;4997038;28;20684;-84
2021/03/29 13:58:00;;;;;;;2.65;1.48;;;;;;;;;;4996460;28;20261;-84
2021/03/29 14:00:27;;;;;;;3.08;2.17;;;;;;;;;;4996316;28;20215;-84
2021/03/29 14:02:59;;;;;;;5.15;1.45;;;;;;;;;;4996943;28;20196;-84
2021/03/29 14:05:31;;;;;;;2.22;1.80;;;;;;;;;;4997321;28;20200;-84
2021/03/29 14:07:58;;;;;;;1.42;1.30;;;;;;;;;;4996721;28;20641;-84
2021/03/29 14:10:26;;;;;;;1.65;1.23;;;;;;;;;;4996805;28;20211;-83
2021/03/29 14:12:56;;;;;;;1.52;1.20;;;;;;;;;;4996837;28;20254;-84
2021/03/29 14:15:22;;;;;;;2.55;1.60;;;;;;;;;;4997910;28;20254;-84
2021/03/29 14:17:49;;;;;;;4.45;1.55;;;;;;;;;;4996777;28;20235;-83
2021/03/29 14:20:17;;;;;;;3.33;1.90;;;;;;;;;;4996695;28;20246;-83
2021/03/29 14:22:44;;;;;;;2.88;2.15;;;;;;;;;;4996763;28;20199;-85
2021/03/29 14:25:12;;;;;;;2.05;1.30;;;;;;;;;;4996513;28;20589;-84
2021/03/29 14:27:41;;;;;;;2.08;1.75;;;;;;;;;;4996142;28;20230;-84
2021/03/29 14:30:11;;;;;;;5.75;1.42;;;;;;;;;;4996604;28;20216;-84
2021/03/29 14:32:38;;;;;;;2.50;1.27;;;;;;;;;;4996940;28;20639;-84
2021/03/29 14:35:11;;;;;;;2.45;2.05;;;;;;;;;;4997406;28;20484;-84
2021/03/29 14:37:53;;;;;;;1.58;1.30;;;;;;;;;;4997280;28;20271;-84
2021/03/29 14:40:26;;;;;;;1.65;1.30;;;;;;;;;;4996913;28;20203;-84
2021/03/29 14:43:00;;;;;;;1.98;1.38;;;;;;;;;;4997015;28;20195;-84
2021/03/29 14:45:27;;;;;;;1.35;1.23;;;;;;;;;;4996526;28;20207;-84
2021/03/29 14:47:54;;;;;;;1.40;1.30;;;;;;;;;;4996122;28;20223;-84
2021/03/29 14:50:21;;;;;;;1.55;1.20;;;;;;;;;;4996027;28;20208;-84
2021/03/29 14:52:48;;;;;;;1.92;1.73;;;;;;;;;;4995324;28;20204;-83
2021/03/29 14:55:20;;;;;;;2.08;1.27;;;;;;;;;;4996349;28;20211;-84
2021/03/29 14:57:47;;;;;;;2.10;1.33;;;;;;;;;;4995865;28;20236;-84
2021/03/29 15:00:18;;;;;;;4.88;1.20;;;;;;;;;;4996090;28;20207;-84
2021/03/29 15:02:55;;;;;;;2.72;2.03;;;;;;;;;;4996262;28;20215;-84
2021/03/29 15:05:30;;;;;;;1.67;1.30;;;;;;;;;;4998847;28;20207;-84
2021/03/29 15:07:57;;;;;;;1.40;1.10;;;;;;;;;;4995749;28;20223;-84
2021/03/29 15:10:24;;;;;;;2.05;1.67;;;;;;;;;;4996283;28;20203;-83